Terminal Aerodrome Forecast
Issued by NWS Memphis, TN

Home | Current Version | Previous Version | Text Only | Print | Product List | Glossary On
Versions: 1 2 3 4 5 6 7 8 9 10 11 12 13
000
FTUS44 KMEG 310500
TAFMKL
TAF
KMKL 310521Z 3106/0106 00000KT P6SM OVC100
      TEMPO 3109/3112 5SM BR
     FM311400 25003KT P6SM SCT050 OVC120
     FM010100 VRB02KT P6SM SCT050=

USA.gov is the U.S. government's official web portal to all federal, state and local government web resources and services.